Time,TemperatureF,DewpointF,PressureIn,WindDirection,WindDirectionDegrees,WindSpeedMPH,WindSpeedGustMPH,Humidity,HourlyPrecipIn,Conditions,Clouds,dailyrainin,SoftwareType,DateUTC
2013-05-02 00:01:00,47.1,44.6,30.52,East,88,0.0,0.0,91,0.00,,,0.00,meteohub,2013-05-02 04:01:00,
2013-05-02 00:02:00,47.1,44.6,30.52,East,87,0.0,0.0,91,0.00,,,0.00,meteohub,2013-05-02 04:02:00,
2013-05-02 00:07:00,46.9,44.4,30.52,East,87,0.0,0.0,91,0.00,,,0.00,meteohub,2013-05-02 04:07:00,
2013-05-02 00:12:00,46.8,44.2,30.52,East,88,0.0,0.0,91,0.00,,,0.00,meteohub,2013-05-02 04:12:00,
2013-05-02 00:17:00,46.8,44.2,30.52,East,87,0.0,0.0,91,0.00,,,0.00,meteohub,2013-05-02 04:17:00,
2013-05-02 00:22:00,46.6,44.1,30.51,East,88,0.0,0.0,91,0.00,,,0.00,meteohub,2013-05-02 04:22:00,
2013-05-02 00:27:00,46.2,43.7,30.51,East,87,0.0,0.0,91,0.00,,,0.00,meteohub,2013-05-02 04:27:00,
2013-05-02 00:32:00,46.0,43.5,30.51,East,87,0.0,0.0,91,0.00,,,0.00,meteohub,2013-05-02 04:32:00,
2013-05-02 00:37:00,45.9,43.7,30.51,East,87,0.0,0.0,92,0.00,,,0.00,meteohub,2013-05-02 04:37:00,
2013-05-02 00:42:00,45.7,43.5,30.51,East,88,0.0,0.0,92,0.00,,,0.00,meteohub,2013-05-02 04:42:00,
2013-05-02 00:46:00,45.7,43.5,30.51,East,87,0.0,0.0,92,0.00,,,0.00,meteohub,2013-05-02 04:46:00,
2013-05-02 00:51:00,45.7,43.5,30.51,East,88,0.0,0.0,92,0.00,,,0.00,meteohub,2013-05-02 04:51:00,
2013-05-02 00:56:00,45.5,43.3,30.51,East,88,0.0,0.0,92,0.00,,,0.00,meteohub,2013-05-02 04:56:00,
2013-05-02 01:01:00,45.3,43.2,30.51,East,88,0.0,0.0,92,0.00,,,0.00,meteohub,2013-05-02 05:01:00,
2013-05-02 01:06:00,45.3,43.3,30.50,East,87,0.0,0.0,93,0.00,,,0.00,meteohub,2013-05-02 05:06:00,
2013-05-02 01:12:00,45.3,43.3,30.50,East,88,0.0,0.0,93,0.00,,,0.00,meteohub,2013-05-02 05:12:00,
2013-05-02 01:16:00,45.1,43.2,30.50,East,87,0.0,0.0,93,0.00,,,0.00,meteohub,2013-05-02 05:16:00,
2013-05-02 01:21:00,45.1,43.2,30.50,East,87,0.0,0.0,93,0.00,,,0.00,meteohub,2013-05-02 05:21:00,
2013-05-02 01:26:00,44.8,42.8,30.50,East,87,0.0,0.0,93,0.00,,,0.00,meteohub,2013-05-02 05:26:00,
2013-05-02 01:31:00,44.6,42.6,30.49,East,87,0.0,0.0,93,0.00,,,0.00,meteohub,2013-05-02 05:31:00,
2013-05-02 01:36:00,44.4,42.4,30.49,East,88,0.0,0.0,93,0.00,,,0.00,meteohub,2013-05-02 05:36:00,
2013-05-02 01:41:00,44.2,42.3,30.49,East,87,0.0,0.0,93,0.00,,,0.00,meteohub,2013-05-02 05:41:00,
2013-05-02 01:46:00,44.1,42.1,30.49,East,87,0.0,0.0,93,0.00,,,0.00,meteohub,2013-05-02 05:46:00,
2013-05-02 01:51:00,43.9,41.9,30.48,East,88,0.0,0.0,93,0.00,,,0.00,meteohub,2013-05-02 05:51:00,
2013-05-02 01:56:00,43.5,41.7,30.48,East,88,0.0,0.0,93,0.00,,,0.00,meteohub,2013-05-02 05:56:00,
2013-05-02 02:02:00,43.5,41.7,30.48,East,87,0.0,0.0,93,0.00,,,0.00,meteohub,2013-05-02 06:02:00,
2013-05-02 02:06:00,43.3,41.5,30.48,East,87,0.0,0.0,93,0.00,,,0.00,meteohub,2013-05-02 06:06:00,
2013-05-02 02:11:00,43.2,41.4,30.48,East,87,0.0,0.0,93,0.00,,,0.00,meteohub,2013-05-02 06:11:00,
2013-05-02 02:16:00,43.0,41.2,30.48,East,87,0.0,0.0,93,0.00,,,0.00,meteohub,2013-05-02 06:16:00,
2013-05-02 02:21:00,43.0,41.4,30.48,East,87,0.0,0.0,94,0.00,,,0.00,meteohub,2013-05-02 06:21:00,
2013-05-02 02:26:00,42.6,41.0,30.47,East,87,0.0,0.0,94,0.00,,,0.00,meteohub,2013-05-02 06:26:00,
2013-05-02 02:31:00,42.6,41.0,30.47,East,88,0.0,0.0,94,0.00,,,0.00,meteohub,2013-05-02 06:31:00,
2013-05-02 02:36:00,42.4,40.8,30.47,East,88,0.0,0.0,94,0.00,,,0.00,meteohub,2013-05-02 06:36:00,
2013-05-02 02:41:00,42.4,40.8,30.47,East,88,0.0,0.0,94,0.00,,,0.00,meteohub,2013-05-02 06:41:00,
2013-05-02 02:46:00,42.6,41.0,30.46,East,88,0.0,0.0,94,0.00,,,0.00,meteohub,2013-05-02 06:46:00,
2013-05-02 02:51:00,42.6,41.0,30.46,East,87,0.0,0.0,94,0.00,,,0.00,meteohub,2013-05-02 06:51:00,
2013-05-02 02:56:00,42.4,40.8,30.46,East,87,0.0,0.0,94,0.00,,,0.00,meteohub,2013-05-02 06:56:00,
2013-05-02 03:01:00,42.3,40.6,30.46,East,88,0.0,0.0,94,0.00,,,0.00,meteohub,2013-05-02 07:01:00,
2013-05-02 03:06:00,42.1,40.5,30.46,East,87,0.0,0.0,94,0.00,,,0.00,meteohub,2013-05-02 07:06:00,
2013-05-02 03:11:00,42.1,40.5,30.47,East,88,0.0,0.0,94,0.00,,,0.00,meteohub,2013-05-02 07:11:00,
2013-05-02 03:16:00,42.1,40.5,30.47,East,88,0.0,0.0,94,0.00,,,0.00,meteohub,2013-05-02 07:16:00,
2013-05-02 03:21:00,41.9,40.3,30.47,East,88,0.0,0.0,94,0.00,,,0.00,meteohub,2013-05-02 07:21:00,
2013-05-02 03:26:00,41.7,40.5,30.47,East,87,0.0,0.0,95,0.00,,,0.00,meteohub,2013-05-02 07:26:00,
2013-05-02 03:31:00,41.7,40.5,30.47,East,87,0.0,0.0,95,0.00,,,0.00,meteohub,2013-05-02 07:31:00,
2013-05-02 03:36:00,41.7,40.5,30.47,East,87,0.0,0.0,95,0.00,,,0.00,meteohub,2013-05-02 07:36:00,
2013-05-02 03:41:00,41.7,40.5,30.47,East,87,0.0,0.0,95,0.00,,,0.00,meteohub,2013-05-02 07:41:00,
2013-05-02 03:46:00,41.7,40.5,30.47,East,87,0.0,0.0,95,0.00,,,0.00,meteohub,2013-05-02 07:46:00,
2013-05-02 03:51:00,41.7,40.5,30.47,East,88,0.0,0.0,95,0.00,,,0.00,meteohub,2013-05-02 07:51:00,
2013-05-02 03:56:00,41.5,40.3,30.47,East,87,0.0,0.0,95,0.00,,,0.00,meteohub,2013-05-02 07:56:00,
2013-05-02 04:01:00,41.5,40.3,30.47,East,88,0.0,0.0,95,0.00,,,0.00,meteohub,2013-05-02 08:01:00,
2013-05-02 04:06:00,41.5,40.3,30.46,East,87,0.0,0.0,95,0.00,,,0.00,meteohub,2013-05-02 08:06:00,
2013-05-02 04:11:00,41.5,40.3,30.46,East,88,0.0,0.0,95,0.00,,,0.00,meteohub,2013-05-02 08:11:00,
2013-05-02 04:16:00,41.5,40.3,30.46,East,88,0.0,0.0,95,0.00,,,0.00,meteohub,2013-05-02 08:16:00,
2013-05-02 04:21:00,41.5,40.3,30.46,East,87,0.0,0.0,95,0.00,,,0.00,meteohub,2013-05-02 08:21:00,
2013-05-02 04:26:00,41.5,40.3,30.46,East,87,0.0,0.0,95,0.00,,,0.00,meteohub,2013-05-02 08:26:00,
2013-05-02 04:31:00,41.5,40.3,30.46,East,87,0.0,0.0,95,0.00,,,0.00,meteohub,2013-05-02 08:31:00,
2013-05-02 04:36:00,41.5,40.3,30.46,East,87,0.0,0.0,95,0.00,,,0.00,meteohub,2013-05-02 08:36:00,
2013-05-02 04:41:00,41.5,40.3,30.46,East,87,0.0,0.0,95,0.00,,,0.00,meteohub,2013-05-02 08:41:00,
2013-05-02 04:46:00,41.4,40.1,30.46,East,87,0.0,0.0,95,0.00,,,0.00,meteohub,2013-05-02 08:46:00,
2013-05-02 04:51:00,41.2,39.9,30.47,East,87,0.0,0.0,95,0.00,,,0.00,meteohub,2013-05-02 08:51:00,
2013-05-02 04:56:00,40.8,39.6,30.47,East,88,0.0,0.0,95,0.00,,,0.00,meteohub,2013-05-02 08:56:00,
2013-05-02 05:01:00,40.6,39.4,30.47,East,88,0.0,0.0,95,0.00,,,0.00,meteohub,2013-05-02 09:01:00,
2013-05-02 05:06:00,40.6,39.4,30.47,East,87,0.0,0.0,95,0.00,,,0.00,meteohub,2013-05-02 09:06:00,
2013-05-02 05:11:00,40.5,39.2,30.47,East,87,0.0,0.0,95,0.00,,,0.00,meteohub,2013-05-02 09:11:00,
2013-05-02 05:16:00,40.3,39.0,30.47,East,88,0.0,0.0,95,0.00,,,0.00,meteohub,2013-05-02 09:16:00,
2013-05-02 05:21:00,40.3,39.0,30.47,East,87,0.0,0.0,95,0.00,,,0.00,meteohub,2013-05-02 09:21:00,
2013-05-02 05:27:00,40.3,39.0,30.47,East,87,0.0,0.0,95,0.00,,,0.00,meteohub,2013-05-02 09:27:00,
2013-05-02 05:32:00,40.1,38.8,30.46,East,87,0.0,0.0,95,0.00,,,0.00,meteohub,2013-05-02 09:32:00,
2013-05-02 05:37:00,39.9,38.7,30.47,East,87,0.0,0.0,95,0.00,,,0.00,meteohub,2013-05-02 09:37:00,
2013-05-02 05:42:00,39.9,38.7,30.47,East,87,0.0,0.0,95,0.00,,,0.00,meteohub,2013-05-02 09:42:00,
2013-05-02 05:47:00,39.9,38.8,30.47,East,88,0.0,0.0,96,0.00,,,0.00,meteohub,2013-05-02 09:47:00,
2013-05-02 05:52:00,39.9,38.8,30.47,East,88,0.0,0.0,96,0.00,,,0.00,meteohub,2013-05-02 09:52:00,
2013-05-02 05:57:00,39.9,38.8,30.48,East,88,0.0,0.0,96,0.00,,,0.00,meteohub,2013-05-02 09:57:00,
2013-05-02 06:02:00,39.9,38.8,30.48,East,87,0.0,0.0,96,0.00,,,0.00,meteohub,2013-05-02 10:02:00,
2013-05-02 06:07:00,39.9,38.8,30.48,East,88,0.0,0.0,96,0.00,,,0.00,meteohub,2013-05-02 10:07:00,
2013-05-02 06:12:00,39.9,38.8,30.48,East,87,0.0,0.0,96,0.00,,,0.00,meteohub,2013-05-02 10:12:00,
2013-05-02 06:17:00,40.1,39.0,30.48,East,87,0.0,0.0,96,0.00,,,0.00,meteohub,2013-05-02 10:17:00,
2013-05-02 06:22:00,40.3,39.2,30.48,East,87,0.0,0.0,96,0.00,,,0.00,meteohub,2013-05-02 10:22:00,
2013-05-02 06:27:00,40.3,39.2,30.48,East,87,0.0,0.0,96,0.00,,,0.00,meteohub,2013-05-02 10:27:00,
2013-05-02 06:32:00,40.3,39.2,30.48,East,88,0.0,0.0,96,0.00,,,0.00,meteohub,2013-05-02 10:32:00,
2013-05-02 06:36:00,40.3,39.2,30.48,East,88,0.0,0.0,96,0.00,,,0.00,meteohub,2013-05-02 10:36:00,
2013-05-02 06:41:00,40.6,39.9,30.48,East,88,0.0,0.0,97,0.00,,,0.00,meteohub,2013-05-02 10:41:00,
2013-05-02 06:46:00,40.8,40.1,30.49,East,87,0.0,0.0,97,0.00,,,0.00,meteohub,2013-05-02 10:46:00,
2013-05-02 06:52:00,41.2,40.5,30.48,East,87,0.0,0.0,97,0.00,,,0.00,meteohub,2013-05-02 10:52:00,
2013-05-02 06:57:00,41.4,40.6,30.48,East,87,0.0,0.0,97,0.00,,,0.00,meteohub,2013-05-02 10:57:00,
2013-05-02 07:02:00,42.1,41.4,30.48,East,88,0.0,0.0,97,0.00,,,0.00,meteohub,2013-05-02 11:02:00,
2013-05-02 07:06:00,43.0,42.3,30.48,East,87,0.0,0.0,97,0.00,,,0.00,meteohub,2013-05-02 11:06:00,
2013-05-02 07:11:00,43.5,42.8,30.48,East,87,0.0,0.0,97,0.00,,,0.00,meteohub,2013-05-02 11:11:00,
2013-05-02 07:16:00,43.9,43.2,30.49,East,87,0.0,0.0,97,0.00,,,0.00,meteohub,2013-05-02 11:16:00,
2013-05-02 07:21:00,44.4,43.7,30.49,East,87,0.0,0.0,97,0.00,,,0.00,meteohub,2013-05-02 11:21:00,
2013-05-02 07:26:00,45.0,44.2,30.49,East,87,0.0,0.0,97,0.00,,,0.00,meteohub,2013-05-02 11:26:00,
2013-05-02 07:31:00,45.5,44.8,30.49,East,87,0.0,0.0,97,0.00,,,0.00,meteohub,2013-05-02 11:31:00,
2013-05-02 07:36:00,45.9,45.1,30.49,East,87,0.0,0.0,97,0.00,,,0.00,meteohub,2013-05-02 11:36:00,
2013-05-02 07:41:00,46.2,45.5,30.49,East,87,0.0,0.0,97,0.00,,,0.00,meteohub,2013-05-02 11:41:00,
2013-05-02 07:46:00,46.8,46.0,30.50,East,87,0.0,0.0,97,0.00,,,0.00,meteohub,2013-05-02 11:46:00,
2013-05-02 07:51:00,47.5,46.4,30.50,ENE,65,0.0,0.0,96,0.00,,,0.00,meteohub,2013-05-02 11:51:00,
2013-05-02 07:56:00,48.0,46.9,30.50,ENE,65,0.0,0.0,96,0.00,,,0.00,meteohub,2013-05-02 11:56:00,
2013-05-02 08:01:00,48.7,47.3,30.50,ENE,65,0.0,0.0,95,0.00,,,0.00,meteohub,2013-05-02 12:01:00,
2013-05-02 08:06:00,49.3,47.7,30.50,ENE,65,0.0,0.0,94,0.00,,,0.00,meteohub,2013-05-02 12:06:00,
2013-05-02 08:11:00,49.6,47.5,30.50,NNE,18,0.0,0.0,92,0.00,,,0.00,meteohub,2013-05-02 12:11:00,
2013-05-02 08:16:00,50.4,47.8,30.50,NNE,18,0.0,0.0,91,0.00,,,0.00,meteohub,2013-05-02 12:16:00,
2013-05-02 08:21:00,51.1,48.0,30.50,NE,53,0.0,0.0,89,0.00,,,0.00,meteohub,2013-05-02 12:21:00,
2013-05-02 08:26:00,52.0,47.8,30.50,NE,44,0.0,0.0,86,0.00,,,0.00,meteohub,2013-05-02 12:26:00,
2013-05-02 08:31:00,52.7,48.0,30.50,NE,47,0.0,0.0,84,0.00,,,0.00,meteohub,2013-05-02 12:31:00,
2013-05-02 08:36:00,53.2,47.5,30.50,ESE,105,0.0,3.0,81,0.00,,,0.00,meteohub,2013-05-02 12:36:00,
2013-05-02 08:42:00,54.0,47.3,30.50,NE,34,3.0,3.0,78,0.00,,,0.00,meteohub,2013-05-02 12:42:00,
2013-05-02 08:46:00,54.7,47.3,30.50,NE,37,0.0,3.0,76,0.00,,,0.00,meteohub,2013-05-02 12:46:00,
2013-05-02 08:51:00,55.2,47.1,30.50,ENE,74,0.0,3.0,74,0.00,,,0.00,meteohub,2013-05-02 12:51:00,
2013-05-02 08:57:00,55.8,46.9,30.50,NE,42,3.0,4.0,72,0.00,,,0.00,meteohub,2013-05-02 12:57:00,
2013-05-02 09:01:00,56.1,47.3,30.50,ENE,67,0.0,5.0,72,0.00,,,0.00,meteohub,2013-05-02 13:01:00,
2013-05-02 09:06:00,56.7,47.3,30.50,ENE,74,3.0,5.0,71,0.00,,,0.00,meteohub,2013-05-02 13:06:00,
2013-05-02 09:11:00,57.0,46.9,30.50,SE,132,1.0,5.0,69,0.00,,,0.00,meteohub,2013-05-02 13:11:00,
2013-05-02 09:16:00,57.6,47.1,30.50,ESE,120,1.0,4.0,68,0.00,,,0.00,meteohub,2013-05-02 13:16:00,
2013-05-02 09:21:00,58.1,48.0,30.50,NE,49,1.0,4.0,69,0.00,,,0.00,meteohub,2013-05-02 13:21:00,
2013-05-02 09:27:00,58.5,48.0,30.50,ESE,105,1.0,3.0,68,0.00,,,0.00,meteohub,2013-05-02 13:27:00,
2013-05-02 09:32:00,58.6,46.6,30.50,NW,326,1.0,3.0,64,0.00,,,0.00,meteohub,2013-05-02 13:32:00,
2013-05-02 09:37:00,58.8,47.1,30.50,ESE,104,1.0,4.0,65,0.00,,,0.00,meteohub,2013-05-02 13:37:00,
2013-05-02 09:42:00,59.4,47.1,30.50,ESE,114,3.0,4.0,64,0.00,,,0.00,meteohub,2013-05-02 13:42:00,
2013-05-02 09:47:00,59.7,46.8,30.50,ENE,77,1.0,4.0,62,0.00,,,0.00,meteohub,2013-05-02 13:47:00,
2013-05-02 09:52:00,60.1,46.9,30.50,ENE,58,1.0,4.0,62,0.00,,,0.00,meteohub,2013-05-02 13:52:00,
2013-05-02 09:57:00,60.4,47.3,30.50,East,84,0.0,4.0,62,0.00,,,0.00,meteohub,2013-05-02 13:57:00,
2013-05-02 10:02:00,61.0,46.9,30.50,East,80,1.0,4.0,60,0.00,,,0.00,meteohub,2013-05-02 14:02:00,
2013-05-02 10:07:00,61.3,47.3,30.50,NNE,33,3.0,4.0,60,0.00,,,0.00,meteohub,2013-05-02 14:07:00,
2013-05-02 10:12:00,61.9,48.7,30.51,SE,124,1.0,4.0,62,0.00,,,0.00,meteohub,2013-05-02 14:12:00,
2013-05-02 10:17:00,62.1,48.0,30.50,ESE,104,5.0,5.0,60,0.00,,,0.00,meteohub,2013-05-02 14:17:00,
2013-05-02 10:21:00,61.9,47.8,30.51,SE,143,2.0,5.0,60,0.00,,,0.00,meteohub,2013-05-02 14:21:00,
2013-05-02 10:27:00,61.9,47.8,30.51,ESE,117,2.0,5.0,60,0.00,,,0.00,meteohub,2013-05-02 14:27:00,
2013-05-02 10:31:00,62.4,48.4,30.51,SE,135,1.0,5.0,60,0.00,,,0.00,meteohub,2013-05-02 14:31:00,
2013-05-02 10:37:00,63.0,48.0,30.51,SW,226,1.0,5.0,58,0.00,,,0.00,meteohub,2013-05-02 14:37:00,
2013-05-02 10:42:00,62.8,45.9,30.51,ESE,109,1.0,5.0,54,0.00,,,0.00,meteohub,2013-05-02 14:42:00,
2013-05-02 10:47:00,62.4,46.0,30.51,SE,135,1.0,5.0,55,0.00,,,0.00,meteohub,2013-05-02 14:47:00,
2013-05-02 10:52:00,62.8,46.9,30.51,East,85,1.0,5.0,56,0.00,,,0.00,meteohub,2013-05-02 14:52:00,
2013-05-02 10:57:00,62.8,45.3,30.51,ESE,115,3.0,5.0,53,0.00,,,0.00,meteohub,2013-05-02 14:57:00,
2013-05-02 11:02:00,63.0,46.6,30.51,ESE,108,3.0,6.0,55,0.00,,,0.00,meteohub,2013-05-02 15:02:00,
2013-05-02 11:07:00,62.6,45.1,30.51,ESE,115,3.0,7.0,53,0.00,,,0.00,meteohub,2013-05-02 15:07:00,
2013-05-02 11:11:00,63.0,45.1,30.51,SW,232,1.0,7.0,52,0.00,,,0.00,meteohub,2013-05-02 15:11:00,
2013-05-02 11:16:00,63.1,45.7,30.51,SE,133,2.0,7.0,53,0.00,,,0.00,meteohub,2013-05-02 15:16:00,
2013-05-02 11:21:00,63.5,45.0,30.51,East,101,2.0,5.0,51,0.00,,,0.00,meteohub,2013-05-02 15:21:00,
2013-05-02 11:26:00,63.7,45.1,30.50,East,84,4.0,6.0,51,0.00,,,0.00,meteohub,2013-05-02 15:26:00,
2013-05-02 11:31:00,63.9,45.3,30.50,SSW,208,1.0,7.0,51,0.00,,,0.00,meteohub,2013-05-02 15:31:00,
2013-05-02 11:36:00,64.9,45.9,30.50,ESE,113,2.0,7.0,50,0.00,,,0.00,meteohub,2013-05-02 15:36:00,
2013-05-02 11:41:00,64.9,45.3,30.50,SE,124,5.0,9.0,49,0.00,,,0.00,meteohub,2013-05-02 15:41:00,
2013-05-02 11:46:00,64.8,45.7,30.50,ESE,122,3.0,9.0,50,0.00,,,0.00,meteohub,2013-05-02 15:46:00,
2013-05-02 11:51:00,64.8,44.6,30.50,ESE,106,3.0,9.0,48,0.00,,,0.00,meteohub,2013-05-02 15:51:00,
2013-05-02 11:56:00,64.9,45.3,30.49,East,100,5.0,7.0,49,0.00,,,0.00,meteohub,2013-05-02 15:56:00,
2013-05-02 12:01:00,65.5,45.9,30.49,ESE,102,3.0,6.0,49,0.00,,,0.00,meteohub,2013-05-02 16:01:00,
2013-05-02 12:06:00,65.5,44.2,30.49,ESE,120,3.0,6.0,46,0.00,,,0.00,meteohub,2013-05-02 16:06:00,
2013-05-02 12:11:00,65.5,44.2,30.49,ENE,78,1.0,7.0,46,0.00,,,0.00,meteohub,2013-05-02 16:11:00,
2013-05-02 12:16:00,65.5,44.2,30.49,ESE,113,4.0,7.0,46,0.00,,,0.00,meteohub,2013-05-02 16:16:00,
2013-05-02 12:21:00,65.3,44.6,30.48,East,92,5.0,7.0,47,0.00,,,0.00,meteohub,2013-05-02 16:21:00,
2013-05-02 12:26:00,65.8,43.9,30.48,SSE,153,0.0,6.0,45,0.00,,,0.00,meteohub,2013-05-02 16:26:00,
2013-05-02 12:31:00,66.9,43.7,30.48,SE,136,1.0,6.0,43,0.00,,,0.00,meteohub,2013-05-02 16:31:00,
2013-05-02 12:36:00,66.7,44.1,30.48,ESE,104,4.0,7.0,44,0.00,,,0.00,meteohub,2013-05-02 16:36:00,
2013-05-02 12:41:00,66.6,43.3,30.48,SE,137,1.0,7.0,43,0.00,,,0.00,meteohub,2013-05-02 16:41:00,
2013-05-02 12:46:00,66.6,44.6,30.48,South,179,0.0,7.0,45,0.00,,,0.00,meteohub,2013-05-02 16:46:00,
2013-05-02 12:51:00,67.3,45.1,30.48,SE,143,3.0,7.0,45,0.00,,,0.00,meteohub,2013-05-02 16:51:00,
2013-05-02 12:56:00,67.1,43.9,30.48,SE,128,0.0,7.0,43,0.00,,,0.00,meteohub,2013-05-02 16:56:00,
2013-05-02 13:02:00,67.5,43.5,30.48,SSE,155,1.0,7.0,42,0.00,,,0.00,meteohub,2013-05-02 17:02:00,
2013-05-02 13:06:00,67.3,43.3,30.48,South,180,2.0,5.0,42,0.00,,,0.00,meteohub,2013-05-02 17:06:00,
2013-05-02 13:11:00,67.8,44.4,30.47,South,176,3.0,7.0,43,0.00,,,0.00,meteohub,2013-05-02 17:11:00,
2013-05-02 13:16:00,67.6,43.2,30.47,SSE,149,0.0,7.0,41,0.00,,,0.00,meteohub,2013-05-02 17:16:00,
2013-05-02 13:21:00,66.9,43.2,30.47,ESE,113,4.0,7.0,42,0.00,,,0.00,meteohub,2013-05-02 17:21:00,
2013-05-02 13:26:00,66.9,43.7,30.47,SSW,195,2.0,7.0,43,0.00,,,0.00,meteohub,2013-05-02 17:26:00,
2013-05-02 13:31:00,67.8,44.4,30.46,South,191,1.0,7.0,43,0.00,,,0.00,meteohub,2013-05-02 17:31:00,
2013-05-02 13:36:00,68.4,43.2,30.46,ESE,109,4.0,7.0,40,0.00,,,0.00,meteohub,2013-05-02 17:36:00,
2013-05-02 13:41:00,68.2,43.5,30.46,East,100,2.0,5.0,41,0.00,,,0.00,meteohub,2013-05-02 17:41:00,
2013-05-02 13:46:00,68.7,43.3,30.46,SE,136,1.0,5.0,40,0.00,,,0.00,meteohub,2013-05-02 17:46:00,
2013-05-02 13:51:00,68.5,43.3,30.46,East,87,2.0,5.0,40,0.00,,,0.00,meteohub,2013-05-02 17:51:00,
2013-05-02 13:56:00,68.2,42.3,30.45,South,191,1.0,5.0,39,0.00,,,0.00,meteohub,2013-05-02 17:56:00,
2013-05-02 14:01:00,69.3,43.9,30.45,ENE,67,4.0,5.0,40,0.00,,,0.00,meteohub,2013-05-02 18:01:00,
2013-05-02 14:06:00,68.4,43.7,30.45,ENE,63,1.0,5.0,41,0.00,,,0.00,meteohub,2013-05-02 18:06:00,
2013-05-02 14:11:00,68.2,43.5,30.45,ESE,117,2.0,6.0,41,0.00,,,0.00,meteohub,2013-05-02 18:11:00,
2013-05-02 14:16:00,68.7,43.3,30.45,ESE,118,1.0,6.0,40,0.00,,,0.00,meteohub,2013-05-02 18:16:00,
2013-05-02 14:21:00,68.5,43.3,30.45,East,79,2.0,6.0,40,0.00,,,0.00,meteohub,2013-05-02 18:21:00,
2013-05-02 14:26:00,68.4,42.4,30.45,ENE,57,1.0,5.0,39,0.00,,,0.00,meteohub,2013-05-02 18:26:00,
2013-05-02 14:31:00,68.0,42.8,30.45,ENE,70,1.0,5.0,40,0.00,,,0.00,meteohub,2013-05-02 18:31:00,
2013-05-02 14:36:00,68.9,43.5,30.45,ESE,102,2.0,5.0,40,0.00,,,0.00,meteohub,2013-05-02 18:36:00,
2013-05-02 14:41:00,69.4,44.1,30.44,SSE,150,1.0,5.0,40,0.00,,,0.00,meteohub,2013-05-02 18:41:00,
2013-05-02 14:47:00,70.3,44.2,30.44,East,101,2.0,5.0,39,0.00,,,0.00,meteohub,2013-05-02 18:47:00,
2013-05-02 14:52:00,70.3,43.5,30.44,SE,138,1.0,5.0,38,0.00,,,0.00,meteohub,2013-05-02 18:52:00,
2013-05-02 14:57:00,70.9,43.3,30.44,ENE,72,3.0,5.0,37,0.00,,,0.00,meteohub,2013-05-02 18:57:00,
2013-05-02 15:02:00,70.3,43.5,30.44,ESE,114,3.0,5.0,38,0.00,,,0.00,meteohub,2013-05-02 19:02:00,
2013-05-02 15:07:00,70.7,43.9,30.44,SSE,167,3.0,5.0,38,0.00,,,0.00,meteohub,2013-05-02 19:07:00,
2013-05-02 15:12:00,70.9,42.6,30.43,East,89,0.0,4.0,36,0.00,,,0.00,meteohub,2013-05-02 19:12:00,
2013-05-02 15:17:00,71.2,43.0,30.43,East,90,2.0,5.0,36,0.00,,,0.00,meteohub,2013-05-02 19:17:00,
2013-05-02 15:22:00,71.2,43.7,30.43,East,98,1.0,6.0,37,0.00,,,0.00,meteohub,2013-05-02 19:22:00,
2013-05-02 15:27:00,71.4,43.7,30.43,SE,142,0.0,6.0,37,0.00,,,0.00,meteohub,2013-05-02 19:27:00,
2013-05-02 15:32:00,72.3,43.9,30.43,East,94,3.0,6.0,36,0.00,,,0.00,meteohub,2013-05-02 19:32:00,
2013-05-02 15:37:00,72.0,44.2,30.43,ENE,68,3.0,4.0,37,0.00,,,0.00,meteohub,2013-05-02 19:37:00,
2013-05-02 15:42:00,71.4,43.7,30.42,SSW,194,1.0,4.0,37,0.00,,,0.00,meteohub,2013-05-02 19:42:00,
2013-05-02 15:47:00,72.3,45.3,30.42,South,179,6.0,6.0,38,0.00,,,0.00,meteohub,2013-05-02 19:47:00,
2013-05-02 15:52:00,72.9,43.5,30.42,SSW,194,1.0,6.0,35,0.00,,,0.00,meteohub,2013-05-02 19:52:00,
2013-05-02 15:57:00,72.7,43.5,30.42,ESE,102,1.0,6.0,35,0.00,,,0.00,meteohub,2013-05-02 19:57:00,
2013-05-02 16:02:00,72.5,44.8,30.42,ESE,108,1.0,6.0,37,0.00,,,0.00,meteohub,2013-05-02 20:02:00,
2013-05-02 16:07:00,72.9,44.4,30.42,East,86,0.0,5.0,36,0.00,,,0.00,meteohub,2013-05-02 20:07:00,
2013-05-02 16:12:00,73.9,44.6,30.41,ESE,117,1.0,5.0,35,0.00,,,0.00,meteohub,2013-05-02 20:12:00,
2013-05-02 16:17:00,73.6,43.5,30.41,ESE,115,1.0,4.0,34,0.00,,,0.00,meteohub,2013-05-02 20:17:00,
2013-05-02 16:22:00,72.9,42.8,30.41,SSW,203,3.0,5.0,34,0.00,,,0.00,meteohub,2013-05-02 20:22:00,
2013-05-02 16:27:00,72.5,43.3,30.41,SW,225,2.0,5.0,35,0.00,,,0.00,meteohub,2013-05-02 20:27:00,
2013-05-02 16:32:00,73.0,45.9,30.41,ESE,104,2.0,5.0,38,0.00,,,0.00,meteohub,2013-05-02 20:32:00,
2013-05-02 16:37:00,73.2,43.9,30.40,SSW,208,1.0,5.0,35,0.00,,,0.00,meteohub,2013-05-02 20:37:00,
2013-05-02 16:42:00,73.9,43.9,30.40,ENE,70,2.0,4.0,34,0.00,,,0.00,meteohub,2013-05-02 20:42:00,
2013-05-02 16:47:00,73.9,43.0,30.40,SSW,195,1.0,4.0,33,0.00,,,0.00,meteohub,2013-05-02 20:47:00,
2013-05-02 16:52:00,73.8,44.4,30.40,East,88,3.0,4.0,35,0.00,,,0.00,meteohub,2013-05-02 20:52:00,
2013-05-02 16:57:00,72.7,43.5,30.40,ESE,105,1.0,5.0,35,0.00,,,0.00,meteohub,2013-05-02 20:57:00,
2013-05-02 17:02:00,72.7,43.5,30.40,South,180,0.0,5.0,35,0.00,,,0.00,meteohub,2013-05-02 21:02:00,
2013-05-02 17:07:00,73.2,43.2,30.40,SE,140,2.0,5.0,34,0.00,,,0.00,meteohub,2013-05-02 21:07:00,
2013-05-02 17:12:00,73.0,43.0,30.40,SSW,208,1.0,5.0,34,0.00,,,0.00,meteohub,2013-05-02 21:12:00,
2013-05-02 17:17:00,72.7,43.5,30.40,SW,217,0.0,5.0,35,0.00,,,0.00,meteohub,2013-05-02 21:17:00,
2013-05-02 17:22:00,72.3,43.2,30.40,ESE,104,2.0,5.0,35,0.00,,,0.00,meteohub,2013-05-02 21:22:00,
2013-05-02 17:27:00,72.0,43.5,30.40,ESE,115,2.0,6.0,36,0.00,,,0.00,meteohub,2013-05-02 21:27:00,
2013-05-02 17:32:00,71.8,42.6,30.40,SE,130,0.0,6.0,35,0.00,,,0.00,meteohub,2013-05-02 21:32:00,
2013-05-02 17:37:00,71.8,43.3,30.40,SE,129,1.0,6.0,36,0.00,,,0.00,meteohub,2013-05-02 21:37:00,
2013-05-02 17:42:00,72.1,43.0,30.40,SW,215,1.0,5.0,35,0.00,,,0.00,meteohub,2013-05-02 21:42:00,
2013-05-02 17:47:00,72.0,42.8,30.40,ESE,107,1.0,5.0,35,0.00,,,0.00,meteohub,2013-05-02 21:47:00,
2013-05-02 17:52:00,71.2,43.0,30.40,ESE,104,2.0,5.0,36,0.00,,,0.00,meteohub,2013-05-02 21:52:00,
2013-05-02 17:57:00,71.4,44.4,30.39,SE,129,0.0,5.0,38,0.00,,,0.00,meteohub,2013-05-02 21:57:00,
2013-05-02 18:02:00,71.6,43.9,30.39,SE,141,0.0,5.0,37,0.00,,,0.00,meteohub,2013-05-02 22:02:00,
2013-05-02 18:07:00,72.0,44.2,30.39,SW,222,1.0,4.0,37,0.00,,,0.00,meteohub,2013-05-02 22:07:00,
2013-05-02 18:12:00,72.3,44.6,30.38,ESE,103,1.0,4.0,37,0.00,,,0.00,meteohub,2013-05-02 22:12:00,
2013-05-02 18:17:00,72.1,45.1,30.38,East,98,0.0,4.0,38,0.00,,,0.00,meteohub,2013-05-02 22:17:00,
2013-05-02 18:22:00,71.8,46.2,30.38,ESE,105,1.0,2.0,40,0.00,,,0.00,meteohub,2013-05-02 22:22:00,
2013-05-02 18:27:00,70.5,45.0,30.38,ESE,103,3.0,4.0,40,0.00,,,0.00,meteohub,2013-05-02 22:27:00,
2013-05-02 18:32:00,70.0,45.1,30.38,East,86,1.0,4.0,41,0.00,,,0.00,meteohub,2013-05-02 22:32:00,
2013-05-02 18:37:00,69.6,45.0,30.38,East,99,1.0,4.0,41,0.00,,,0.00,meteohub,2013-05-02 22:37:00,
2013-05-02 18:42:00,70.0,45.1,30.37,SE,126,1.0,3.0,41,0.00,,,0.00,meteohub,2013-05-02 22:42:00,
2013-05-02 18:47:00,70.0,44.6,30.37,ESE,113,1.0,3.0,40,0.00,,,0.00,meteohub,2013-05-02 22:47:00,
2013-05-02 18:52:00,70.3,45.0,30.37,ESE,112,0.0,3.0,40,0.00,,,0.00,meteohub,2013-05-02 22:52:00,
2013-05-02 18:57:00,70.3,45.0,30.37,ESE,105,1.0,3.0,40,0.00,,,0.00,meteohub,2013-05-02 22:57:00,
2013-05-02 19:02:00,70.5,45.0,30.37,SSW,210,0.0,2.0,40,0.00,,,0.00,meteohub,2013-05-02 23:02:00,
2013-05-02 19:07:00,71.4,45.9,30.37,SE,124,1.0,2.0,40,0.00,,,0.00,meteohub,2013-05-02 23:07:00,
2013-05-02 19:12:00,71.2,45.7,30.37,ESE,122,0.0,2.0,40,0.00,,,0.00,meteohub,2013-05-02 23:12:00,
2013-05-02 19:17:00,71.4,45.1,30.37,ESE,122,0.0,2.0,39,0.00,,,0.00,meteohub,2013-05-02 23:17:00,
2013-05-02 19:22:00,71.8,45.5,30.37,SW,229,0.0,1.0,39,0.00,,,0.00,meteohub,2013-05-02 23:22:00,
2013-05-02 19:27:00,72.1,45.9,30.36,SSW,208,0.0,2.0,39,0.00,,,0.00,meteohub,2013-05-02 23:27:00,
2013-05-02 19:32:00,71.8,44.1,30.37,WSW,243,0.0,2.0,37,0.00,,,0.00,meteohub,2013-05-02 23:32:00,
2013-05-02 19:37:00,70.7,44.6,30.37,SE,139,0.0,2.0,39,0.00,,,0.00,meteohub,2013-05-02 23:37:00,
2013-05-02 19:42:00,69.6,43.5,30.37,SSE,153,1.0,2.0,39,0.00,,,0.00,meteohub,2013-05-02 23:42:00,
2013-05-02 19:47:00,68.9,44.2,30.37,SE,138,1.0,3.0,41,0.00,,,0.00,meteohub,2013-05-02 23:47:00,
2013-05-02 19:52:00,68.2,43.5,30.37,SSW,200,0.0,3.0,41,0.00,,,0.00,meteohub,2013-05-02 23:52:00,
2013-05-02 19:57:00,67.6,43.7,30.37,SW,221,0.0,4.0,42,0.00,,,0.00,meteohub,2013-05-02 23:57:00,
2013-05-02 20:02:00,67.3,44.1,30.37,SE,145,0.0,4.0,43,0.00,,,0.00,meteohub,2013-05-03 00:02:00,
2013-05-02 20:07:00,66.7,44.1,30.37,SSE,155,0.0,4.0,44,0.00,,,0.00,meteohub,2013-05-03 00:07:00,
2013-05-02 20:12:00,66.4,43.9,30.37,South,172,0.0,3.0,44,0.00,,,0.00,meteohub,2013-05-03 00:12:00,
2013-05-02 20:17:00,65.8,43.9,30.37,SSW,192,0.0,4.0,45,0.00,,,0.00,meteohub,2013-05-03 00:17:00,
2013-05-02 20:22:00,65.5,44.2,30.37,SW,232,1.0,4.0,46,0.00,,,0.00,meteohub,2013-05-03 00:22:00,
2013-05-02 20:27:00,65.1,44.4,30.37,SE,135,0.0,4.0,47,0.00,,,0.00,meteohub,2013-05-03 00:27:00,
2013-05-02 20:32:00,64.8,44.1,30.37,SSE,152,0.0,2.0,47,0.00,,,0.00,meteohub,2013-05-03 00:32:00,
2013-05-02 20:37:00,64.6,43.9,30.37,SE,136,0.0,2.0,47,0.00,,,0.00,meteohub,2013-05-03 00:37:00,
2013-05-02 20:42:00,64.0,43.9,30.38,ESE,121,0.0,2.0,48,0.00,,,0.00,meteohub,2013-05-03 00:42:00,
2013-05-02 20:47:00,63.9,43.7,30.38,SE,145,0.0,2.0,48,0.00,,,0.00,meteohub,2013-05-03 00:47:00,
2013-05-02 20:52:00,63.7,44.2,30.38,South,183,2.0,3.0,49,0.00,,,0.00,meteohub,2013-05-03 00:52:00,
2013-05-02 20:57:00,63.3,43.9,30.38,SSW,202,0.0,3.0,49,0.00,,,0.00,meteohub,2013-05-03 00:57:00,
2013-05-02 21:02:00,63.1,43.7,30.38,SSW,195,0.0,3.0,49,0.00,,,0.00,meteohub,2013-05-03 01:02:00,
2013-05-02 21:07:00,62.8,43.9,30.38,SSW,213,0.0,2.0,50,0.00,,,0.00,meteohub,2013-05-03 01:07:00,
2013-05-02 21:12:00,62.6,44.2,30.38,SSW,193,0.0,3.0,51,0.00,,,0.00,meteohub,2013-05-03 01:12:00,
2013-05-02 21:17:00,62.2,43.9,30.38,SSW,193,0.0,3.0,51,0.00,,,0.00,meteohub,2013-05-03 01:17:00,
2013-05-02 21:22:00,62.1,43.7,30.38,SSW,207,1.0,4.0,51,0.00,,,0.00,meteohub,2013-05-03 01:22:00,
2013-05-02 21:27:00,61.9,43.5,30.38,SW,226,0.0,4.0,51,0.00,,,0.00,meteohub,2013-05-03 01:27:00,
2013-05-02 21:32:00,61.5,43.7,30.38,SSE,155,0.0,4.0,52,0.00,,,0.00,meteohub,2013-05-03 01:32:00,
2013-05-02 21:37:00,61.3,43.5,30.37,South,172,0.0,3.0,52,0.00,,,0.00,meteohub,2013-05-03 01:37:00,
2013-05-02 21:42:00,61.2,43.3,30.37,SSE,149,0.0,3.0,52,0.00,,,0.00,meteohub,2013-05-03 01:42:00,
2013-05-02 21:47:00,60.8,43.5,30.37,SE,131,1.0,2.0,53,0.00,,,0.00,meteohub,2013-05-03 01:47:00,
2013-05-02 21:52:00,60.4,43.2,30.38,South,177,0.0,2.0,53,0.00,,,0.00,meteohub,2013-05-03 01:52:00,
2013-05-02 21:57:00,60.3,43.0,30.38,ESE,102,0.0,1.0,53,0.00,,,0.00,meteohub,2013-05-03 01:57:00,
2013-05-02 22:02:00,60.3,43.0,30.38,East,101,0.0,1.0,53,0.00,,,0.00,meteohub,2013-05-03 02:02:00,
2013-05-02 22:07:00,60.1,43.3,30.38,ESE,102,0.0,1.0,54,0.00,,,0.00,meteohub,2013-05-03 02:07:00,
2013-05-02 22:12:00,59.7,43.0,30.38,ESE,103,0.0,1.0,54,0.00,,,0.00,meteohub,2013-05-03 02:12:00,
2013-05-02 22:16:00,59.5,42.8,30.38,SE,146,0.0,1.0,54,0.00,,,0.00,meteohub,2013-05-03 02:16:00,
2013-05-02 22:21:00,59.4,42.8,30.38,ESE,117,0.0,1.0,54,0.00,,,0.00,meteohub,2013-05-03 02:21:00,
2013-05-02 22:27:00,59.2,43.0,30.38,ESE,117,0.0,1.0,55,0.00,,,0.00,meteohub,2013-05-03 02:27:00,
2013-05-02 22:32:00,59.0,42.8,30.38,SE,142,0.0,3.0,55,0.00,,,0.00,meteohub,2013-05-03 02:32:00,
2013-05-02 22:37:00,58.8,42.6,30.38,SSE,155,0.0,3.0,55,0.00,,,0.00,meteohub,2013-05-03 02:37:00,
2013-05-02 22:42:00,58.6,42.4,30.38,SSW,194,0.0,3.0,55,0.00,,,0.00,meteohub,2013-05-03 02:42:00,
2013-05-02 22:47:00,58.6,42.4,30.38,SW,226,0.0,2.0,55,0.00,,,0.00,meteohub,2013-05-03 02:47:00,
2013-05-02 22:52:00,58.3,42.6,30.38,SSW,200,0.0,2.0,56,0.00,,,0.00,meteohub,2013-05-03 02:52:00,
2013-05-02 22:57:00,58.3,42.6,30.38,East,96,0.0,2.0,56,0.00,,,0.00,meteohub,2013-05-03 02:57:00,
2013-05-02 23:02:00,58.1,43.0,30.38,East,96,0.0,2.0,57,0.00,,,0.00,meteohub,2013-05-03 03:02:00,
2013-05-02 23:07:00,57.7,43.0,30.38,East,96,1.0,1.0,58,0.00,,,0.00,meteohub,2013-05-03 03:07:00,
2013-05-02 23:12:00,57.4,43.7,30.38,East,96,0.0,1.0,60,0.00,,,0.00,meteohub,2013-05-03 03:12:00,
2013-05-02 23:17:00,56.8,43.5,30.38,East,96,0.0,1.0,61,0.00,,,0.00,meteohub,2013-05-03 03:17:00,
2013-05-02 23:22:00,56.3,43.9,30.38,East,96,0.0,1.0,63,0.00,,,0.00,meteohub,2013-05-03 03:22:00,
2013-05-02 23:27:00,55.9,43.5,30.38,East,96,0.0,0.0,63,0.00,,,0.00,meteohub,2013-05-03 03:27:00,
2013-05-02 23:32:00,55.6,43.5,30.38,East,96,0.0,0.0,64,0.00,,,0.00,meteohub,2013-05-03 03:32:00,
2013-05-02 23:37:00,55.2,43.7,30.39,East,96,0.0,0.0,65,0.00,,,0.00,meteohub,2013-05-03 03:37:00,
2013-05-02 23:41:00,55.0,43.2,30.39,East,96,0.0,0.0,64,0.00,,,0.00,meteohub,2013-05-03 03:41:00,
2013-05-02 23:47:00,54.9,43.7,30.39,East,96,0.0,0.0,66,0.00,,,0.00,meteohub,2013-05-03 03:47:00,
2013-05-02 23:52:00,54.5,43.7,30.40,East,96,0.0,0.0,67,0.00,,,0.00,meteohub,2013-05-03 03:52:00,
2013-05-02 23:57:00,54.3,44.1,30.40,East,96,0.0,0.0,68,0.00,,,0.00,meteohub,2013-05-03 03:57:00,